sensor_id;sensor_type;location;lat;lon;timestamp;pressure;altitude;pressure_sealevel;temperature;humidity
54920;BME280;63804;53.120;8.764;2023-04-19T00:02:12;103186.50;;;9.01;68.23
54920;BME280;63804;53.120;8.764;2023-04-19T00:04:39;103176.16;;;8.94;68.59
54920;BME280;63804;53.120;8.764;2023-04-19T00:07:06;103180.56;;;8.93;68.38
54920;BME280;63804;53.120;8.764;2023-04-19T00:09:34;103177.16;;;8.88;68.72
54920;BME280;63804;53.120;8.764;2023-04-19T00:12:02;103176.38;;;8.86;68.37
54920;BME280;63804;53.120;8.764;2023-04-19T00:14:28;103182.47;;;8.88;68.66
54920;BME280;63804;53.120;8.764;2023-04-19T00:16:55;103173.63;;;8.89;68.45
54920;BME280;63804;53.120;8.764;2023-04-19T00:19:22;103172.09;;;8.81;68.46
54920;BME280;63804;53.120;8.764;2023-04-19T00:21:49;103174.78;;;8.79;68.60
54920;BME280;63804;53.120;8.764;2023-04-19T00:24:17;103170.44;;;8.78;68.45
54920;BME280;63804;53.120;8.764;2023-04-19T00:26:43;103169.75;;;8.70;68.94
54920;BME280;63804;53.120;8.764;2023-04-19T00:29:11;103167.03;;;8.73;68.47
54920;BME280;63804;53.120;8.764;2023-04-19T00:31:38;103168.66;;;8.77;68.41
54920;BME280;63804;53.120;8.764;2023-04-19T00:34:05;103171.09;;;8.85;67.84
54920;BME280;63804;53.120;8.764;2023-04-19T00:36:32;103168.72;;;8.75;67.79
54920;BME280;63804;53.120;8.764;2023-04-19T00:38:59;103163.59;;;8.69;67.81
54920;BME280;63804;53.120;8.764;2023-04-19T00:41:26;103167.03;;;8.73;67.83
54920;BME280;63804;53.120;8.764;2023-04-19T00:43:54;103164.25;;;8.77;67.28
54920;BME280;63804;53.120;8.764;2023-04-19T00:46:21;103169.75;;;8.70;67.31
54920;BME280;63804;53.120;8.764;2023-04-19T00:48:48;103167.44;;;8.58;67.49
54920;BME280;63804;53.120;8.764;2023-04-19T00:51:16;103169.19;;;8.59;67.25
54920;BME280;63804;53.120;8.764;2023-04-19T00:53:43;103163.94;;;8.57;67.09
54920;BME280;63804;53.120;8.764;2023-04-19T00:56:10;103161.28;;;8.57;66.75
54920;BME280;63804;53.120;8.764;2023-04-19T00:58:39;103163.06;;;8.57;66.39
54920;BME280;63804;53.120;8.764;2023-04-19T01:01:06;103162.06;;;8.61;66.22
54920;BME280;63804;53.120;8.764;2023-04-19T01:03:33;103163.19;;;8.52;66.30
54920;BME280;63804;53.120;8.764;2023-04-19T01:06:01;103161.53;;;8.48;66.37
54920;BME280;63804;53.120;8.764;2023-04-19T01:08:28;103166.09;;;8.41;66.16
54920;BME280;63804;53.120;8.764;2023-04-19T01:10:54;103158.25;;;8.38;65.89
54920;BME280;63804;53.120;8.764;2023-04-19T01:13:22;103161.00;;;8.34;66.04
54920;BME280;63804;53.120;8.764;2023-04-19T01:15:48;103158.25;;;8.40;65.74
54920;BME280;63804;53.120;8.764;2023-04-19T01:18:17;103168.19;;;8.27;66.03
54920;BME280;63804;53.120;8.764;2023-04-19T01:20:45;103151.38;;;8.31;65.93
54920;BME280;63804;53.120;8.764;2023-04-19T01:23:12;103152.13;;;8.36;65.68
54920;BME280;63804;53.120;8.764;2023-04-19T01:25:39;103162.84;;;8.30;65.58
54920;BME280;63804;53.120;8.764;2023-04-19T01:28:05;103157.81;;;8.19;65.87
54920;BME280;63804;53.120;8.764;2023-04-19T01:30:34;103159.38;;;8.28;65.52
54920;BME280;63804;53.120;8.764;2023-04-19T01:33:01;103159.53;;;8.22;65.49
54920;BME280;63804;53.120;8.764;2023-04-19T01:35:28;103158.50;;;8.27;65.27
54920;BME280;63804;53.120;8.764;2023-04-19T01:37:54;103160.28;;;8.27;65.02
54920;BME280;63804;53.120;8.764;2023-04-19T01:40:25;103161.50;;;8.14;65.35
54920;BME280;63804;53.120;8.764;2023-04-19T01:42:52;103161.63;;;8.09;65.29
54920;BME280;63804;53.120;8.764;2023-04-19T01:45:19;103161.63;;;8.09;65.21
54920;BME280;63804;53.120;8.764;2023-04-19T01:47:46;103159.91;;;8.06;65.32
54920;BME280;63804;53.120;8.764;2023-04-19T01:50:13;103163.72;;;7.95;65.57
54920;BME280;63804;53.120;8.764;2023-04-19T01:52:40;103153.88;;;8.01;65.53
54920;BME280;63804;53.120;8.764;2023-04-19T01:55:07;103152.28;;;7.94;65.21
54920;BME280;63804;53.120;8.764;2023-04-19T01:57:35;103155.91;;;7.90;64.86
54920;BME280;63804;53.120;8.764;2023-04-19T02:00:02;103152.50;;;7.85;65.12
54920;BME280;63804;53.120;8.764;2023-04-19T02:02:29;103148.94;;;7.88;64.77
54920;BME280;63804;53.120;8.764;2023-04-19T02:04:56;103153.53;;;7.78;64.69
54920;BME280;63804;53.120;8.764;2023-04-19T02:07:23;103154.38;;;7.80;64.77
54920;BME280;63804;53.120;8.764;2023-04-19T02:09:50;103162.34;;;7.78;64.65
54920;BME280;63804;53.120;8.764;2023-04-19T02:12:17;103161.38;;;7.82;64.46
54920;BME280;63804;53.120;8.764;2023-04-19T02:14:44;103162.28;;;7.80;64.72
54920;BME280;63804;53.120;8.764;2023-04-19T02:17:11;103156.16;;;7.79;64.55
54920;BME280;63804;53.120;8.764;2023-04-19T02:19:38;103154.44;;;7.78;64.28
54920;BME280;63804;53.120;8.764;2023-04-19T02:22:04;103157.16;;;7.74;64.69
54920;BME280;63804;53.120;8.764;2023-04-19T02:24:31;103170.44;;;7.69;64.75
54920;BME280;63804;53.120;8.764;2023-04-19T02:26:58;103155.56;;;7.67;64.62
54920;BME280;63804;53.120;8.764;2023-04-19T02:29:25;103157.53;;;7.57;64.96
54920;BME280;63804;53.120;8.764;2023-04-19T02:31:52;103157.50;;;7.58;64.71
54920;BME280;63804;53.120;8.764;2023-04-19T02:34:19;103158.41;;;7.57;64.29
54920;BME280;63804;53.120;8.764;2023-04-19T02:36:46;103154.81;;;7.62;64.45
54920;BME280;63804;53.120;8.764;2023-04-19T02:39:16;103156.78;;;7.52;64.52
54920;BME280;63804;53.120;8.764;2023-04-19T02:41:43;103153.41;;;7.45;64.49
54920;BME280;63804;53.120;8.764;2023-04-19T02:44:10;103162.13;;;7.47;64.60
54920;BME280;63804;53.120;8.764;2023-04-19T02:46:38;103156.06;;;7.45;64.25
54920;BME280;63804;53.120;8.764;2023-04-19T02:49:05;103158.06;;;7.32;64.48
54920;BME280;63804;53.120;8.764;2023-04-19T02:51:32;103156.16;;;7.41;64.32
54920;BME280;63804;53.120;8.764;2023-04-19T02:53:59;103155.13;;;7.48;64.05
54920;BME280;63804;53.120;8.764;2023-04-19T02:56:26;103150.78;;;7.45;63.65
54920;BME280;63804;53.120;8.764;2023-04-19T02:58:52;103152.78;;;7.34;64.12
54920;BME280;63804;53.120;8.764;2023-04-19T03:01:20;103153.75;;;7.28;63.94
54920;BME280;63804;53.120;8.764;2023-04-19T03:03:47;103147.56;;;7.31;64.15
54920;BME280;63804;53.120;8.764;2023-04-19T03:06:14;103152.72;;;7.36;63.59
54920;BME280;63804;53.120;8.764;2023-04-19T03:08:42;103154.72;;;7.26;63.76
54920;BME280;63804;53.120;8.764;2023-04-19T03:11:15;103155.47;;;7.31;63.63
54920;BME280;63804;53.120;8.764;2023-04-19T03:13:42;103153.81;;;7.27;63.85
54920;BME280;63804;53.120;8.764;2023-04-19T03:16:09;103145.84;;;7.28;63.55
54920;BME280;63804;53.120;8.764;2023-04-19T03:18:36;103144.13;;;7.27;63.33
54920;BME280;63804;53.120;8.764;2023-04-19T03:21:03;103145.69;;;7.36;62.84
54920;BME280;63804;53.120;8.764;2023-04-19T03:23:30;103144.34;;;7.17;63.40
54920;BME280;63804;53.120;8.764;2023-04-19T03:25:57;103135.69;;;7.12;63.53
54920;BME280;63804;53.120;8.764;2023-04-19T03:28:24;103135.63;;;7.13;63.18
54920;BME280;63804;53.120;8.764;2023-04-19T03:30:51;103146.25;;;7.10;63.28
54920;BME280;63804;53.120;8.764;2023-04-19T03:33:18;103148.91;;;7.08;63.08
54920;BME280;63804;53.120;8.764;2023-04-19T03:35:45;103145.47;;;7.06;63.06
54920;BME280;63804;53.120;8.764;2023-04-19T03:38:12;103148.97;;;7.05;63.20
54920;BME280;63804;53.120;8.764;2023-04-19T03:40:39;103142.00;;;7.03;62.86
54920;BME280;63804;53.120;8.764;2023-04-19T03:43:06;103143.00;;;6.97;62.91
54920;BME280;63804;53.120;8.764;2023-04-19T03:45:33;103149.22;;;6.95;62.93
54920;BME280;63804;53.120;8.764;2023-04-19T03:48:00;103140.69;;;6.80;63.34
54920;BME280;63804;53.120;8.764;2023-04-19T03:50:28;103146.78;;;6.84;63.40
54920;BME280;63804;53.120;8.764;2023-04-19T03:52:55;103144.09;;;6.87;63.21
54920;BME280;63804;53.120;8.764;2023-04-19T03:55:22;103146.59;;;6.93;63.18
54920;BME280;63804;53.120;8.764;2023-04-19T03:57:49;103143.91;;;6.96;62.78
54920;BME280;63804;53.120;8.764;2023-04-19T04:00:16;103143.19;;;6.88;62.72
54920;BME280;63804;53.120;8.764;2023-04-19T04:02:43;103138.81;;;6.87;62.95
54920;BME280;63804;53.120;8.764;2023-04-19T04:05:10;103144.16;;;6.82;63.19
54920;BME280;63804;53.120;8.764;2023-04-19T04:07:38;103138.13;;;6.77;63.01
54920;BME280;63804;53.120;8.764;2023-04-19T04:10:05;103147.59;;;6.86;63.07
54920;BME280;63804;53.120;8.764;2023-04-19T04:12:32;103141.38;;;6.90;62.78
54920;BME280;63804;53.120;8.764;2023-04-19T04:14:59;103141.31;;;6.93;62.55
54920;BME280;63804;53.120;8.764;2023-04-19T04:17:26;103149.31;;;6.89;62.63
54920;BME280;63804;53.120;8.764;2023-04-19T04:19:53;103150.22;;;6.88;62.78
54920;BME280;63804;53.120;8.764;2023-04-19T04:22:20;103147.75;;;6.80;62.89
54920;BME280;63804;53.120;8.764;2023-04-19T04:24:47;103147.75;;;6.80;62.85
54920;BME280;63804;53.120;8.764;2023-04-19T04:27:14;103146.88;;;6.79;63.07
54920;BME280;63804;53.120;8.764;2023-04-19T04:29:45;103146.06;;;6.76;63.00
54920;BME280;63804;53.120;8.764;2023-04-19T04:32:12;103140.72;;;6.79;63.21
54920;BME280;63804;53.120;8.764;2023-04-19T04:34:40;103147.06;;;6.69;63.17
54920;BME280;63804;53.120;8.764;2023-04-19T04:37:08;103150.56;;;6.68;63.39
54920;BME280;63804;53.120;8.764;2023-04-19T04:39:36;103154.78;;;6.78;62.89
54920;BME280;63804;53.120;8.764;2023-04-19T04:42:05;103145.41;;;6.65;63.30
54920;BME280;63804;53.120;8.764;2023-04-19T04:44:35;103148.72;;;6.74;63.08
54920;BME280;63804;53.120;8.764;2023-04-19T04:47:02;103154.84;;;6.75;63.01
54920;BME280;63804;53.120;8.764;2023-04-19T04:49:32;103152.19;;;6.75;62.90
54920;BME280;63804;53.120;8.764;2023-04-19T04:51:59;103155.72;;;6.75;62.74
54920;BME280;63804;53.120;8.764;2023-04-19T04:54:26;103150.66;;;6.65;63.18
54920;BME280;63804;53.120;8.764;2023-04-19T04:56:53;103160.38;;;6.61;63.36
54920;BME280;63804;53.120;8.764;2023-04-19T04:59:19;103149.72;;;6.67;63.11
54920;BME280;63804;53.120;8.764;2023-04-19T05:01:46;103142.03;;;6.56;63.25
54920;BME280;63804;53.120;8.764;2023-04-19T05:04:14;103154.25;;;6.61;63.30
54920;BME280;63804;53.120;8.764;2023-04-19T05:06:41;103148.16;;;6.57;62.98
54920;BME280;63804;53.120;8.764;2023-04-19T05:09:10;103144.63;;;6.58;63.43
54920;BME280;63804;53.120;8.764;2023-04-19T05:11:37;103150.75;;;6.58;63.02
54920;BME280;63804;53.120;8.764;2023-04-19T05:14:04;103151.53;;;6.64;62.99
54920;BME280;63804;53.120;8.764;2023-04-19T05:16:31;103151.53;;;6.64;62.84
54920;BME280;63804;53.120;8.764;2023-04-19T05:18:59;103152.34;;;6.69;62.96
54920;BME280;63804;53.120;8.764;2023-04-19T05:21:25;103150.56;;;6.69;63.03
54920;BME280;63804;53.120;8.764;2023-04-19T05:23:52;103150.66;;;6.65;62.75
54920;BME280;63804;53.120;8.764;2023-04-19T05:26:19;103153.34;;;6.62;63.29
54920;BME280;63804;53.120;8.764;2023-04-19T05:28:47;103146.28;;;6.64;63.17
54920;BME280;63804;53.120;8.764;2023-04-19T05:31:13;103144.53;;;6.63;63.24
54920;BME280;63804;53.120;8.764;2023-04-19T05:33:40;103150.72;;;6.60;63.33
54920;BME280;63804;53.120;8.764;2023-04-19T05:36:08;103147.19;;;6.63;63.39
54920;BME280;63804;53.120;8.764;2023-04-19T05:38:35;103153.00;;;6.78;63.01
54920;BME280;63804;53.120;8.764;2023-04-19T05:41:02;103154.00;;;6.73;63.05
54920;BME280;63804;53.120;8.764;2023-04-19T05:43:30;103152.19;;;6.76;62.89
54920;BME280;63804;53.120;8.764;2023-04-19T05:45:57;103150.31;;;6.83;62.42
54920;BME280;63804;53.120;8.764;2023-04-19T05:48:24;103154.69;;;6.84;62.78
54920;BME280;63804;53.120;8.764;2023-04-19T05:50:51;103148.72;;;6.74;63.05
54920;BME280;63804;53.120;8.764;2023-04-19T05:53:20;103153.72;;;6.88;62.41
54920;BME280;63804;53.120;8.764;2023-04-19T05:55:47;103141.53;;;6.82;62.87
54920;BME280;63804;53.120;8.764;2023-04-19T05:58:17;103149.25;;;6.92;62.83
54920;BME280;63804;53.120;8.764;2023-04-19T06:00:44;103152.56;;;7.01;62.25
54920;BME280;63804;53.120;8.764;2023-04-19T06:03:11;103151.59;;;7.07;62.32
54920;BME280;63804;53.120;8.764;2023-04-19T06:05:38;103148.94;;;7.07;62.26
54920;BME280;63804;53.120;8.764;2023-04-19T06:08:06;103148.94;;;7.07;62.34
54920;BME280;63804;53.120;8.764;2023-04-19T06:10:36;103157.63;;;7.12;62.20
54920;BME280;63804;53.120;8.764;2023-04-19T06:13:19;103147.78;;;7.22;62.43
54920;BME280;63804;53.120;8.764;2023-04-19T06:15:47;103145.00;;;7.28;62.17
54920;BME280;63804;53.120;8.764;2023-04-19T06:18:14;103144.13;;;7.29;62.13
54920;BME280;63804;53.120;8.764;2023-04-19T06:20:45;103150.94;;;7.38;62.20
54920;BME280;63804;53.120;8.764;2023-04-19T06:23:13;103149.97;;;7.42;62.29
54920;BME280;63804;53.120;8.764;2023-04-19T06:25:40;103149.06;;;7.44;61.98
54920;BME280;63804;53.120;8.764;2023-04-19T06:28:07;103152.50;;;7.48;62.22
54920;BME280;63804;53.120;8.764;2023-04-19T06:30:34;103150.56;;;7.54;62.20
54920;BME280;63804;53.120;8.764;2023-04-19T06:33:01;103149.56;;;7.60;62.09
54920;BME280;63804;53.120;8.764;2023-04-19T06:35:31;103146.88;;;7.62;61.99
54920;BME280;63804;53.120;8.764;2023-04-19T06:37:58;103148.59;;;7.64;61.85
54920;BME280;63804;53.120;8.764;2023-04-19T06:40:25;103147.41;;;7.77;61.63
54920;BME280;63804;53.120;8.764;2023-04-19T06:42:54;103144.81;;;7.76;61.60
54920;BME280;63804;53.120;8.764;2023-04-19T06:45:22;103140.28;;;7.81;61.73
54920;BME280;63804;53.120;8.764;2023-04-19T06:47:49;103139.16;;;7.91;61.41
54920;BME280;63804;53.120;8.764;2023-04-19T06:50:16;103134.72;;;7.93;61.46
54920;BME280;63804;53.120;8.764;2023-04-19T06:52:43;103138.25;;;7.92;61.14
54920;BME280;63804;53.120;8.764;2023-04-19T06:55:09;103141.63;;;7.99;60.97
54920;BME280;63804;53.120;8.764;2023-04-19T06:57:37;103142.44;;;8.01;61.24
54920;BME280;63804;53.120;8.764;2023-04-19T07:00:04;103146.72;;;8.05;60.75
54920;BME280;63804;53.120;8.764;2023-04-19T07:02:32;103146.72;;;8.06;60.34
54920;BME280;63804;53.120;8.764;2023-04-19T07:04:59;103135.09;;;8.14;59.83
54920;BME280;63804;53.120;8.764;2023-04-19T07:07:27;103132.28;;;8.20;59.92
54920;BME280;63804;53.120;8.764;2023-04-19T07:09:53;103138.34;;;8.25;60.22
54920;BME280;63804;53.120;8.764;2023-04-19T07:12:20;103129.22;;;8.37;59.95
54920;BME280;63804;53.120;8.764;2023-04-19T07:14:47;103133.69;;;8.35;59.33
54920;BME280;63804;53.120;8.764;2023-04-19T07:17:14;103130.16;;;8.36;59.68
54920;BME280;63804;53.120;8.764;2023-04-19T07:19:46;103128.19;;;8.44;59.64
54920;BME280;63804;53.120;8.764;2023-04-19T07:22:14;103122.53;;;8.58;59.35
54920;BME280;63804;53.120;8.764;2023-04-19T07:24:42;103129.31;;;8.68;58.76
54920;BME280;63804;53.120;8.764;2023-04-19T07:27:10;103130.75;;;8.79;58.31
54920;BME280;63804;53.120;8.764;2023-04-19T07:29:37;103117.25;;;8.89;58.14
54920;BME280;63804;53.120;8.764;2023-04-19T07:32:05;103121.53;;;8.94;57.85
54920;BME280;63804;53.120;8.764;2023-04-19T07:34:32;103116.78;;;9.06;57.50
54920;BME280;63804;53.120;8.764;2023-04-19T07:36:59;103116.59;;;9.12;56.98
54920;BME280;63804;53.120;8.764;2023-04-19T07:39:26;103112.84;;;9.19;56.51
54920;BME280;63804;53.120;8.764;2023-04-19T07:41:53;103119.69;;;9.26;56.39
54920;BME280;63804;53.120;8.764;2023-04-19T07:44:20;103111.63;;;9.31;55.90
54920;BME280;63804;53.120;8.764;2023-04-19T07:46:47;103108.75;;;9.38;55.44
54920;BME280;63804;53.120;8.764;2023-04-19T07:49:14;103105.09;;;9.42;55.27
54920;BME280;63804;53.120;8.764;2023-04-19T07:51:41;103103.28;;;9.44;54.52
54920;BME280;63804;53.120;8.764;2023-04-19T07:54:08;103101.25;;;9.52;54.24
54920;BME280;63804;53.120;8.764;2023-04-19T07:56:36;103098.44;;;9.59;53.83
54920;BME280;63804;53.120;8.764;2023-04-19T07:59:03;103090.28;;;9.65;53.73
54920;BME280;63804;53.120;8.764;2023-04-19T08:01:35;103091.66;;;9.76;53.39
54920;BME280;63804;53.120;8.764;2023-04-19T08:04:03;103092.31;;;9.83;53.26
54920;BME280;63804;53.120;8.764;2023-04-19T08:06:30;103080.72;;;9.87;53.65
54920;BME280;63804;53.120;8.764;2023-04-19T08:08:58;103084.91;;;9.94;53.52
54920;BME280;63804;53.120;8.764;2023-04-19T08:11:25;103080.31;;;9.99;53.52
54920;BME280;63804;53.120;8.764;2023-04-19T08:13:52;103075.69;;;10.06;53.51
54920;BME280;63804;53.120;8.764;2023-04-19T08:16:37;103066.78;;;10.09;53.24
54920;BME280;63804;53.120;8.764;2023-04-19T08:19:07;103068.22;;;10.17;52.89
54920;BME280;63804;53.120;8.764;2023-04-19T08:21:34;103060.19;;;10.20;52.99
54920;BME280;63804;53.120;8.764;2023-04-19T08:24:07;103057.88;;;10.36;52.43
54920;BME280;63804;53.120;8.764;2023-04-19T08:26:34;103061.13;;;10.44;51.72
54920;BME280;63804;53.120;8.764;2023-04-19T08:29:01;103061.66;;;10.54;49.79
54920;BME280;63804;53.120;8.764;2023-04-19T08:31:28;103054.41;;;10.59;48.64
54920;BME280;63804;53.120;8.764;2023-04-19T08:33:55;103055.06;;;10.66;47.54
54920;BME280;63804;53.120;8.764;2023-04-19T08:36:22;103051.19;;;10.74;47.35
54920;BME280;63804;53.120;8.764;2023-04-19T08:39:05;103041.13;;;10.84;46.96
54920;BME280;63804;53.120;8.764;2023-04-19T08:41:40;103042.78;;;10.87;45.91
54920;BME280;63804;53.120;8.764;2023-04-19T08:44:09;103039.72;;;10.97;45.93
54920;BME280;63804;53.120;8.764;2023-04-19T08:46:37;103038.44;;;11.08;45.69
54920;BME280;63804;53.120;8.764;2023-04-19T08:49:04;103031.16;;;11.13;45.30
54920;BME280;63804;53.120;8.764;2023-04-19T08:51:32;103041.41;;;11.22;44.76
54920;BME280;63804;53.120;8.764;2023-04-19T08:54:03;103026.59;;;11.16;43.86
54920;BME280;63804;53.120;8.764;2023-04-19T08:56:30;103028.47;;;11.14;44.56
54920;BME280;63804;53.120;8.764;2023-04-19T08:59:01;103033.50;;;11.20;44.54
54920;BME280;63804;53.120;8.764;2023-04-19T09:01:44;103032.34;;;11.28;44.60
54920;BME280;63804;53.120;8.764;2023-04-19T09:04:11;103029.38;;;11.35;44.34
54920;BME280;63804;53.120;8.764;2023-04-19T09:06:41;103013.28;;;11.40;42.99
54920;BME280;63804;53.120;8.764;2023-04-19T09:12:01;103020.72;;;11.52;41.41
54920;BME280;63804;53.120;8.764;2023-04-19T09:14:28;103009.53;;;11.45;41.63
54920;BME280;63804;53.120;8.764;2023-04-19T09:17:11;103016.47;;;11.48;41.46
54920;BME280;63804;53.120;8.764;2023-04-19T09:19:47;103007.59;;;11.49;42.33
54920;BME280;63804;53.120;8.764;2023-04-19T09:22:14;103005.63;;;11.54;42.82
54920;BME280;63804;53.120;8.764;2023-04-19T09:24:41;103004.31;;;11.64;42.16
54920;BME280;63804;53.120;8.764;2023-04-19T09:27:13;102995.41;;;11.65;42.53
54920;BME280;63804;53.120;8.764;2023-04-19T09:29:51;102994.56;;;11.65;42.79
54920;BME280;63804;53.120;8.764;2023-04-19T09:32:19;102996.19;;;11.67;42.58
54920;BME280;63804;53.120;8.764;2023-04-19T09:34:54;102987.06;;;11.75;41.73
54920;BME280;63804;53.120;8.764;2023-04-19T09:37:22;102984.34;;;11.76;42.17
54920;BME280;63804;53.120;8.764;2023-04-19T09:40:24;102972.66;;;11.80;41.28
54920;BME280;63804;53.120;8.764;2023-04-19T09:42:53;102977.59;;;11.89;42.17
54920;BME280;63804;53.120;8.764;2023-04-19T09:45:23;102966.72;;;11.95;41.67
54920;BME280;63804;53.120;8.764;2023-04-19T09:48:00;102975.47;;;11.98;40.19
54920;BME280;63804;53.120;8.764;2023-04-19T09:50:28;102971.19;;;11.95;41.60
54920;BME280;63804;53.120;8.764;2023-04-19T09:52:58;102970.84;;;12.03;40.93
54920;BME280;63804;53.120;8.764;2023-04-19T09:55:26;102960.09;;;12.06;40.75
54920;BME280;63804;53.120;8.764;2023-04-19T09:57:55;102967.13;;;12.07;40.97
54920;BME280;63804;53.120;8.764;2023-04-19T10:00:24;102949.13;;;12.13;39.37
54920;BME280;63804;53.120;8.764;2023-04-19T10:02:51;102937.81;;;12.08;40.10
54920;BME280;63804;53.120;8.764;2023-04-19T10:05:23;102955.06;;;12.18;40.82
54920;BME280;63804;53.120;8.764;2023-04-19T10:07:52;102945.56;;;12.33;39.29
54920;BME280;63804;53.120;8.764;2023-04-19T10:10:25;102922.75;;;12.28;39.23
54920;BME280;63804;53.120;8.764;2023-04-19T10:13:00;102928.28;;;12.23;39.74
54920;BME280;63804;53.120;8.764;2023-04-19T10:15:31;102920.56;;;12.37;39.59
54920;BME280;63804;53.120;8.764;2023-04-19T10:18:18;102917.41;;;12.48;38.18
54920;BME280;63804;53.120;8.764;2023-04-19T10:20:56;102917.75;;;12.59;35.48
54920;BME280;63804;53.120;8.764;2023-04-19T10:23:26;102903.75;;;12.56;35.75
54920;BME280;63804;53.120;8.764;2023-04-19T10:25:55;102903.91;;;12.53;35.41
54920;BME280;63804;53.120;8.764;2023-04-19T10:28:23;102900.94;;;12.59;35.53
54920;BME280;63804;53.120;8.764;2023-04-19T10:30:52;102889.16;;;12.64;36.04
54920;BME280;63804;53.120;8.764;2023-04-19T10:33:26;102882.47;;;12.75;35.95
54920;BME280;63804;53.120;8.764;2023-04-19T10:35:55;102871.84;;;12.75;35.68
54920;BME280;63804;53.120;8.764;2023-04-19T10:38:43;102881.91;;;12.85;33.66
54920;BME280;63804;53.120;8.764;2023-04-19T10:41:18;102884.91;;;12.79;34.21
54920;BME280;63804;53.120;8.764;2023-04-19T10:48:53;102862.06;;;12.92;33.53
54920;BME280;63804;53.120;8.764;2023-04-19T10:54:03;102856.94;;;13.07;34.38
54920;BME280;63804;53.120;8.764;2023-04-19T11:01:35;102848.09;;;13.24;33.44
54920;BME280;63804;53.120;8.764;2023-04-19T11:04:06;102856.44;;;13.16;33.06
54920;BME280;63804;53.120;8.764;2023-04-19T11:06:34;102842.22;;;13.17;33.23
54920;BME280;63804;53.120;8.764;2023-04-19T11:09:01;102842.56;;;13.28;32.95
54920;BME280;63804;53.120;8.764;2023-04-19T11:11:35;102853.97;;;13.30;32.59
54920;BME280;63804;53.120;8.764;2023-04-19T11:14:02;102833.03;;;13.24;32.42
54920;BME280;63804;53.120;8.764;2023-04-19T11:16:30;102831.59;;;13.17;32.87
54920;BME280;63804;53.120;8.764;2023-04-19T11:19:18;102820.84;;;13.18;33.49
54920;BME280;63804;53.120;8.764;2023-04-19T11:21:46;102825.72;;;13.28;33.44
54920;BME280;63804;53.120;8.764;2023-04-19T11:24:13;102825.56;;;13.31;32.87
54920;BME280;63804;53.120;8.764;2023-04-19T11:26:45;102810.56;;;13.30;33.06
54920;BME280;63804;53.120;8.764;2023-04-19T11:29:12;102818.28;;;13.34;34.06
54920;BME280;63804;53.120;8.764;2023-04-19T11:31:43;102812.66;;;13.40;33.40
54920;BME280;63804;53.120;8.764;2023-04-19T11:34:12;102805.38;;;13.44;33.02
54920;BME280;63804;53.120;8.764;2023-04-19T11:36:52;102805.97;;;13.49;32.85
54920;BME280;63804;53.120;8.764;2023-04-19T11:39:19;102801.06;;;13.41;32.91
54920;BME280;63804;53.120;8.764;2023-04-19T11:41:47;102802.63;;;13.46;33.37
54920;BME280;63804;53.120;8.764;2023-04-19T11:44:18;102794.97;;;13.39;33.53
54920;BME280;63804;53.120;8.764;2023-04-19T11:47:01;102789.09;;;13.33;33.11
54920;BME280;63804;53.120;8.764;2023-04-19T11:49:31;102784.25;;;13.24;33.77
54920;BME280;63804;53.120;8.764;2023-04-19T11:52:00;102790.97;;;13.31;34.18
54920;BME280;63804;53.120;8.764;2023-04-19T11:54:31;102785.63;;;13.48;33.60
54920;BME280;63804;53.120;8.764;2023-04-19T11:57:06;102782.41;;;13.59;32.86
54920;BME280;63804;53.120;8.764;2023-04-19T11:59:35;102778.78;;;13.60;31.98
54920;BME280;63804;53.120;8.764;2023-04-19T12:04:32;102760.75;;;13.65;32.54
54920;BME280;63804;53.120;8.764;2023-04-19T12:07:02;102767.41;;;13.74;33.09
54920;BME280;63804;53.120;8.764;2023-04-19T12:09:32;102777.63;;;13.81;32.67
54920;BME280;63804;53.120;8.764;2023-04-19T12:11:59;102772.63;;;13.75;32.05
54920;BME280;63804;53.120;8.764;2023-04-19T12:14:28;102764.22;;;13.67;31.92
54920;BME280;63804;53.120;8.764;2023-04-19T12:17:09;102751.50;;;13.72;32.22
54920;BME280;63804;53.120;8.764;2023-04-19T12:19:42;102755.38;;;13.82;31.27
54920;BME280;63804;53.120;8.764;2023-04-19T12:22:11;102756.22;;;13.67;30.45
54920;BME280;63804;53.120;8.764;2023-04-19T12:24:39;102750.91;;;13.67;31.40
54920;BME280;63804;53.120;8.764;2023-04-19T12:27:07;102759.22;;;13.77;31.14
54920;BME280;63804;53.120;8.764;2023-04-19T12:29:37;102755.59;;;13.62;31.21
54920;BME280;63804;53.120;8.764;2023-04-19T12:32:04;102735.25;;;13.61;30.50
54920;BME280;63804;53.120;8.764;2023-04-19T12:34:32;102740.41;;;13.64;30.80
54920;BME280;63804;53.120;8.764;2023-04-19T12:36:59;102738.00;;;13.75;30.06
54920;BME280;63804;53.120;8.764;2023-04-19T12:39:26;102746.28;;;13.86;29.14
54920;BME280;63804;53.120;8.764;2023-04-19T12:41:55;102728.47;;;13.87;28.55
54920;BME280;63804;53.120;8.764;2023-04-19T12:44:22;102741.09;;;13.99;27.72
54920;BME280;63804;53.120;8.764;2023-04-19T12:46:49;102733.03;;;14.01;27.70
54920;BME280;63804;53.120;8.764;2023-04-19T12:49:17;102743.50;;;14.04;27.97
54920;BME280;63804;53.120;8.764;2023-04-19T12:51:45;102737.69;;;14.13;28.49
54920;BME280;63804;53.120;8.764;2023-04-19T12:54:13;102738.53;;;14.13;27.99
54920;BME280;63804;53.120;8.764;2023-04-19T12:56:41;102734.84;;;14.16;28.10
54920;BME280;63804;53.120;8.764;2023-04-19T12:59:08;102726.84;;;14.16;27.06
54920;BME280;63804;53.120;8.764;2023-04-19T13:01:34;102721.84;;;14.10;27.81
54920;BME280;63804;53.120;8.764;2023-04-19T13:04:02;102724.09;;;14.18;27.77
54920;BME280;63804;53.120;8.764;2023-04-19T13:06:29;102718.47;;;14.22;26.05
54920;BME280;63804;53.120;8.764;2023-04-19T13:08:56;102717.72;;;14.20;26.75
54920;BME280;63804;53.120;8.764;2023-04-19T13:11:27;102722.53;;;14.13;25.94
54920;BME280;63804;53.120;8.764;2023-04-19T13:13:54;102711.03;;;14.13;25.31
54920;BME280;63804;53.120;8.764;2023-04-19T13:16:21;102705.03;;;14.09;25.76
54920;BME280;63804;53.120;8.764;2023-04-19T13:18:49;102705.53;;;14.16;24.70
54920;BME280;63804;53.120;8.764;2023-04-19T13:21:18;102709.50;;;14.09;24.89
54920;BME280;63804;53.120;8.764;2023-04-19T13:23:45;102709.56;;;14.07;24.29